Time;durP1;ratioP1;P1;durP2;ratioP2;P2;SDS_P1;SDS_P2;PMS_P1;PMS_P2;Temp;Humidity;BMP_temperature;BMP_pressure;BME280_temperature;BME280_humidity;BME280_pressure;Samples;Min_cycle;Max_cycle;Signal;HPM_P1;HPM_P2
2022/07/12 00:02:41;;;;;;;0.22;0.22;;;18.20;54.40;20.40;94496.00;;;;10396702;28;45670;-63
2022/07/12 00:08:02;;;;;;;0.20;0.20;;;18.20;54.30;20.40;94491.00;;;;10396570;28;45876;-63
2022/07/12 00:13:22;;;;;;;0.20;0.20;;;18.20;54.30;20.40;94500.00;;;;10460377;22;45234;-69
2022/07/12 00:18:44;;;;;;;0.47;0.32;;;18.20;54.30;20.40;94496.00;;;;10437288;28;45178;-68
2022/07/12 00:24:05;;;;;;;0.57;0.43;;;18.20;54.30;20.40;94501.00;;;;10437548;28;45866;-67
2022/07/12 00:29:26;;;;;;;0.50;0.30;;;18.20;54.30;20.40;94510.00;;;;10437987;28;45266;-67
2022/07/12 00:34:47;;;;;;;0.30;0.30;;;18.20;54.30;20.40;94500.00;;;;10437965;28;45921;-68
2022/07/12 00:40:10;;;;;;;0.98;0.30;;;18.20;54.30;20.40;94500.00;;;;10437636;28;45113;-68
2022/07/12 00:45:31;;;;;;;0.40;0.40;;;18.20;54.90;20.40;94491.00;;;;10437091;28;45809;-67
2022/07/12 00:50:53;;;;;;;0.40;0.30;;;18.20;54.30;20.40;94495.00;;;;10435570;28;45815;-67
2022/07/12 00:56:14;;;;;;;0.30;0.30;;;18.20;54.20;20.40;94475.00;;;;10436217;28;45759;-68
2022/07/12 01:01:35;;;;;;;0.40;0.30;;;18.20;54.20;20.40;94484.00;;;;10431474;28;45791;-67
2022/07/12 01:06:57;;;;;;;0.30;0.30;;;18.20;54.30;20.40;94482.00;;;;10434626;28;45697;-68
2022/07/12 01:12:18;;;;;;;0.40;0.40;;;18.20;54.30;20.30;94478.00;;;;10436649;28;45677;-67
2022/07/12 01:17:40;;;;;;;0.80;0.50;;;18.20;54.30;20.40;94483.00;;;;10436812;28;45692;-67
2022/07/12 01:23:02;;;;;;;0.52;0.50;;;18.20;54.30;20.30;94485.00;;;;10436723;28;45669;-68
2022/07/12 01:28:23;;;;;;;0.75;0.60;;;18.20;54.30;20.30;94478.00;;;;10436324;28;45160;-67
2022/07/12 01:33:43;;;;;;;0.40;0.40;;;18.20;54.30;20.30;94489.00;;;;10436357;28;45199;-67
2022/07/12 01:39:06;;;;;;;0.45;0.38;;;18.20;54.30;20.30;94484.00;;;;10436279;28;45260;-68
2022/07/12 01:44:26;;;;;;;0.40;0.40;;;18.10;54.30;20.30;94478.00;;;;10436072;28;45182;-67
2022/07/12 01:49:47;;;;;;;0.40;0.40;;;18.20;54.40;20.30;94487.00;;;;10435930;28;45728;-67
2022/07/12 01:55:11;;;;;;;0.47;0.40;;;18.10;54.30;20.30;94493.00;;;;10435682;28;45704;-66
2022/07/12 02:00:32;;;;;;;0.40;0.40;;;18.10;54.40;20.30;94483.00;;;;10436267;28;45755;-67
2022/07/12 02:05:53;;;;;;;0.45;0.45;;;18.10;54.40;20.30;94477.00;;;;10442693;28;45859;-67
2022/07/12 02:11:15;;;;;;;0.70;0.50;;;18.10;54.30;20.30;94484.00;;;;10442272;28;45375;-68
2022/07/12 02:16:35;;;;;;;0.43;0.40;;;18.10;54.30;20.30;94480.00;;;;10442445;28;45209;-67
2022/07/12 02:21:55;;;;;;;0.43;0.40;;;18.10;54.20;20.30;94485.00;;;;10442135;28;45751;-67
2022/07/12 02:27:17;;;;;;;0.52;0.43;;;18.10;54.30;20.30;94492.00;;;;10442077;28;45183;-67
2022/07/12 02:32:39;;;;;;;0.82;0.50;;;18.10;54.30;20.30;94484.00;;;;10441444;28;45176;-68
2022/07/12 02:37:59;;;;;;;0.68;0.47;;;18.10;54.30;20.30;94478.00;;;;10441661;28;45672;-67
2022/07/12 02:43:21;;;;;;;1.10;0.43;;;18.10;54.30;20.30;94483.00;;;;10441414;28;45094;-67
2022/07/12 02:48:43;;;;;;;0.63;0.50;;;18.10;54.30;20.30;94476.00;;;;10441414;28;45375;-67
2022/07/12 02:54:04;;;;;;;0.40;0.40;;;18.10;54.30;20.30;94479.00;;;;10441107;28;45789;-67
2022/07/12 02:59:26;;;;;;;1.88;0.50;;;18.10;54.20;20.20;94471.00;;;;10441116;28;45361;-67
2022/07/12 03:04:46;;;;;;;0.52;0.50;;;18.10;54.20;20.30;94473.00;;;;10440737;28;45792;-68
2022/07/12 03:10:08;;;;;;;0.50;0.45;;;18.10;54.80;20.20;94480.00;;;;10440592;28;45070;-67
2022/07/12 03:15:31;;;;;;;0.98;0.70;;;18.10;54.10;20.20;94494.00;;;;10439263;28;45115;-67
2022/07/12 03:20:51;;;;;;;0.57;0.47;;;18.10;54.10;20.20;94491.00;;;;10440369;28;45437;-67
2022/07/12 03:26:12;;;;;;;0.50;0.40;;;18.00;54.10;20.20;94498.00;;;;10440035;28;45385;-67
2022/07/12 03:31:34;;;;;;;0.88;0.60;;;18.10;54.00;20.20;94504.00;;;;10439687;28;45791;-67
2022/07/12 03:36:55;;;;;;;0.70;0.50;;;18.10;54.00;20.20;94502.00;;;;10439749;28;45160;-67
2022/07/12 03:42:15;;;;;;;0.50;0.50;;;18.10;54.00;20.20;94503.00;;;;10439111;28;45677;-67
2022/07/12 03:47:38;;;;;;;0.95;0.50;;;18.00;54.00;20.20;94511.00;;;;10439101;28;45187;-67
2022/07/12 03:52:58;;;;;;;0.75;0.65;;;18.00;54.00;20.20;94503.00;;;;10439328;28;45245;-67
2022/07/12 03:58:19;;;;;;;1.05;0.60;;;18.00;54.00;20.20;94489.00;;;;10439090;28;45247;-67
2022/07/12 04:03:41;;;;;;;0.85;0.47;;;18.00;53.90;20.20;94502.00;;;;10438899;28;45854;-67
2022/07/12 04:09:01;;;;;;;0.43;0.43;;;18.00;53.90;20.20;94494.00;;;;10438511;28;45123;-67
2022/07/12 04:14:22;;;;;;;0.57;0.55;;;18.00;53.90;20.20;94496.00;;;;10438214;28;45189;-68
2022/07/12 04:19:44;;;;;;;0.50;0.47;;;18.00;54.00;20.20;94498.00;;;;10437828;28;47368;-67
2022/07/12 04:25:07;;;;;;;0.50;0.45;;;18.00;54.00;20.20;94497.00;;;;10438002;28;46113;-68
2022/07/12 04:30:29;;;;;;;0.80;0.50;;;18.00;54.00;20.20;94502.00;;;;10438328;28;45642;-67
2022/07/12 04:35:51;;;;;;;0.57;0.50;;;18.00;53.90;20.20;94512.00;;;;10437788;28;45739;-67
2022/07/12 04:41:11;;;;;;;0.50;0.50;;;18.00;53.90;20.20;94514.00;;;;10437520;28;45163;-68
2022/07/12 04:46:32;;;;;;;1.00;0.52;;;18.00;54.00;20.20;94499.00;;;;10437442;28;45765;-67
2022/07/12 04:51:54;;;;;;;0.68;0.50;;;18.00;54.00;20.20;94512.00;;;;10436945;28;45222;-67
2022/07/12 04:57:14;;;;;;;0.50;0.50;;;18.00;54.00;20.20;94510.00;;;;10436208;28;45240;-68
2022/07/12 05:02:35;;;;;;;0.50;0.50;;;18.00;54.00;20.20;94509.00;;;;10437285;28;45845;-67
2022/07/12 05:07:57;;;;;;;0.80;0.60;;;18.00;54.70;20.20;94529.00;;;;10436789;28;45223;-67
2022/07/12 05:13:18;;;;;;;0.50;0.50;;;18.00;54.10;20.20;94526.00;;;;10436633;28;45665;-67
2022/07/12 05:18:38;;;;;;;0.50;0.40;;;18.00;54.00;20.20;94512.00;;;;10436767;28;45187;-67
2022/07/12 05:24:00;;;;;;;0.60;0.50;;;18.00;54.10;20.20;94520.00;;;;10436691;28;45302;-67
2022/07/12 05:29:21;;;;;;;0.60;0.50;;;18.00;54.00;20.20;94523.00;;;;10436286;28;45372;-67
2022/07/12 05:34:42;;;;;;;0.60;0.50;;;18.00;54.00;20.20;94524.00;;;;10436365;28;45229;-67
2022/07/12 05:40:05;;;;;;;0.45;0.43;;;18.00;54.10;20.20;94534.00;;;;10443281;28;45122;-68
2022/07/12 05:45:25;;;;;;;0.82;0.70;;;18.00;54.00;20.20;94526.00;;;;10443094;28;46089;-68
2022/07/12 05:50:46;;;;;;;0.57;0.55;;;18.00;54.10;20.20;94538.00;;;;10443356;28;45171;-67
2022/07/12 05:56:08;;;;;;;0.57;0.55;;;18.00;54.10;20.20;94547.00;;;;10442909;28;45664;-67
2022/07/12 06:01:29;;;;;;;0.40;0.40;;;18.00;54.10;20.20;94548.00;;;;10442860;28;45788;-68
2022/07/12 06:06:50;;;;;;;0.43;0.43;;;18.00;54.10;20.20;94559.00;;;;10442674;28;45144;-67
2022/07/12 06:12:12;;;;;;;0.50;0.50;;;18.00;54.10;20.20;94554.00;;;;10442373;28;45282;-67
2022/07/12 06:17:34;;;;;;;0.63;0.57;;;18.00;54.10;20.20;94561.00;;;;10442107;28;45797;-68
2022/07/12 06:22:56;;;;;;;0.55;0.50;;;18.00;54.10;20.20;94571.00;;;;10441362;28;45669;-68
2022/07/12 06:28:18;;;;;;;0.80;0.52;;;18.10;54.20;20.20;94559.00;;;;10441597;28;45808;-67
2022/07/12 06:33:38;;;;;;;0.60;0.60;;;18.00;54.20;20.20;94565.00;;;;10441644;28;45108;-70
2022/07/12 06:38:58;;;;;;;0.55;0.50;;;18.00;54.20;20.20;94571.00;;;;10441506;28;45297;-68
2022/07/12 06:44:21;;;;;;;0.70;0.50;;;18.10;54.30;20.20;94574.00;;;;10441561;28;45668;-69
2022/07/12 06:49:41;;;;;;;0.80;0.60;;;18.10;54.20;20.20;94583.00;;;;10438997;28;45046;-67
2022/07/12 06:55:02;;;;;;;0.73;0.60;;;18.10;54.20;20.20;94585.00;;;;10440485;28;45779;-67
2022/07/12 07:00:23;;;;;;;0.90;0.65;;;18.10;54.30;20.20;94588.00;;;;10440437;28;45932;-67
2022/07/12 07:05:44;;;;;;;0.70;0.50;;;18.00;54.30;20.20;94591.00;;;;10440415;28;45142;-67
2022/07/12 07:11:05;;;;;;;0.57;0.55;;;18.00;54.30;20.20;94575.00;;;;10439930;28;45490;-67
2022/07/12 07:16:27;;;;;;;0.60;0.60;;;18.10;54.30;20.20;94593.00;;;;10439770;28;45153;-67
2022/07/12 07:21:47;;;;;;;0.70;0.68;;;18.10;54.30;20.20;94583.00;;;;10439901;28;45798;-67
2022/07/12 07:27:08;;;;;;;0.98;0.70;;;18.10;54.30;20.20;94586.00;;;;10439476;28;45206;-67
2022/07/12 07:32:31;;;;;;;1.38;0.60;;;18.10;54.30;20.20;94602.00;;;;10440020;28;45247;-67
2022/07/12 07:37:52;;;;;;;0.85;0.60;;;18.10;54.30;20.20;94603.00;;;;10439491;28;45274;-67
2022/07/12 07:43:15;;;;;;;0.40;0.40;;;18.00;54.30;20.20;94597.00;;;;10439161;28;45847;-67
2022/07/12 07:48:37;;;;;;;0.60;0.50;;;18.00;54.30;20.20;94611.00;;;;10423899;28;45235;-67
2022/07/12 07:54:07;;;;;;;0.77;0.60;;;18.10;54.30;20.20;94597.00;;;;10397393;28;46029;-67
2022/07/12 07:59:32;;;;;;;0.95;0.40;;;18.00;54.20;20.20;94614.00;;;;10402555;28;45209;-68
2022/07/12 08:05:01;;;;;;;0.50;0.47;;;18.10;54.30;20.20;94607.00;;;;10414133;28;46300;-68
2022/07/12 08:10:45;;;;;;;0.52;0.52;;;18.10;54.30;20.20;94610.00;;;;10395793;28;45145;-68
2022/07/12 08:16:38;;;;;;;0.80;0.70;;;18.20;54.30;20.20;94602.00;;;;10396153;28;45261;-67
2022/07/12 08:22:15;;;;;;;0.68;0.60;;;18.10;54.30;20.20;94615.00;;;;10396447;28;45813;-67
2022/07/12 08:27:59;;;;;;;1.17;0.68;;;18.10;54.30;20.20;94613.00;;;;10395554;28;45301;-68
2022/07/12 08:33:33;;;;;;;0.75;0.60;;;18.10;54.30;20.20;94611.00;;;;10395746;28;45108;-67
2022/07/12 08:39:03;;;;;;;0.32;0.32;;;18.10;54.30;20.20;94613.00;;;;10395186;28;45145;-67
2022/07/12 08:44:39;;;;;;;0.65;0.47;;;18.00;54.20;20.20;94613.00;;;;10395813;28;45149;-68
2022/07/12 08:50:28;;;;;;;1.15;0.60;;;18.10;54.30;20.20;94611.00;;;;10394306;28;45784;-68
2022/07/12 08:56:03;;;;;;;0.73;0.52;;;18.10;54.20;20.20;94619.00;;;;10411415;28;45351;-66
2022/07/12 09:01:50;;;;;;;0.55;0.50;;;18.10;54.20;20.20;94621.00;;;;10415063;28;45234;-66
2022/07/12 09:07:22;;;;;;;;;;;18.10;54.20;20.20;94612.00;;;;10421558;28;45292;-65
2022/07/12 09:12:51;;;;;;;1.52;0.60;;;18.10;54.30;20.20;94622.00;;;;10421298;28;45165;-66
2022/07/12 09:18:40;;;;;;;0.57;0.40;;;18.10;54.30;20.20;94629.00;;;;10435721;28;45903;-66
2022/07/12 09:24:08;;;;;;;0.63;0.40;;;18.10;54.70;20.30;94635.00;;;;10435927;28;45906;-66
2022/07/12 09:29:53;;;;;;;2.03;0.50;;;18.10;54.20;20.20;94626.00;;;;10436009;28;45139;-66
2022/07/12 09:41:03;;;;;;;0.80;0.60;;;18.10;54.30;20.20;94630.00;;;;10435760;28;45240;-66
2022/07/12 09:46:30;;;;;;;1.27;0.60;;;18.10;54.30;20.20;94611.00;;;;10435278;28;45116;-67
2022/07/12 09:52:01;;;;;;;0.43;0.43;;;18.10;54.30;20.20;94631.00;;;;10435897;28;45300;-66
2022/07/12 09:57:33;;;;;;;1.15;0.65;;;18.10;54.30;20.30;94641.00;;;;10435652;28;45168;-66
2022/07/12 10:03:01;;;;;;;0.80;0.50;;;18.10;54.40;20.20;94636.00;;;;10435177;28;45808;-66
2022/07/12 10:08:32;;;;;;;2.30;0.45;;;18.10;54.30;20.20;94645.00;;;;10435149;28;45197;-66
2022/07/12 10:13:58;;;;;;;0.50;0.50;;;18.10;54.30;20.20;94648.00;;;;10435088;28;45236;-66
2022/07/12 10:19:32;;;;;;;1.08;0.60;;;18.10;54.40;20.20;94646.00;;;;10435191;28;45168;-66
2022/07/12 10:25:00;;;;;;;1.55;0.57;;;18.10;54.30;20.20;94649.00;;;;10439943;28;45249;-66
2022/07/12 10:30:31;;;;;;;2.00;0.73;;;18.10;54.30;20.20;94656.00;;;;10441483;28;45209;-66
2022/07/12 10:36:08;;;;;;;2.20;0.65;;;18.10;54.40;20.30;94639.00;;;;10441636;28;45857;-66
2022/07/12 10:41:44;;;;;;;0.55;0.43;;;18.10;54.30;20.30;94647.00;;;;10441035;28;45755;-66
2022/07/12 10:47:14;;;;;;;1.30;0.40;;;18.10;54.30;20.30;94639.00;;;;10440169;28;45450;-67
2022/07/12 10:52:43;;;;;;;1.38;0.63;;;18.10;54.30;20.30;94644.00;;;;10437989;28;45213;-67
2022/07/12 10:58:09;;;;;;;2.63;0.65;;;18.10;54.30;20.30;94633.00;;;;10439866;28;45716;-67
2022/07/12 11:03:43;;;;;;;0.98;0.57;;;18.10;54.40;20.30;94626.00;;;;10439297;28;45161;-67
2022/07/12 11:14:56;;;;;;;;;;;18.10;54.30;20.30;94617.00;;;;10439164;28;45201;-67
2022/07/12 11:20:31;;;;;;;1.17;0.50;;;18.10;54.30;20.30;94612.00;;;;10439150;28;45183;-67
2022/07/12 11:26:01;;;;;;;1.63;0.70;;;18.20;54.40;20.30;94626.00;;;;10438816;28;45122;-67
2022/07/12 11:31:47;;;;;;;2.67;0.60;;;18.20;54.40;20.30;94603.00;;;;10437073;28;45233;-67
2022/07/12 11:37:23;;;;;;;1.30;0.60;;;18.10;53.90;20.30;94600.00;;;;10434925;28;45836;-67
2022/07/12 11:43:09;;;;;;;0.80;0.50;;;18.10;55.10;20.30;94617.00;;;;10436298;28;45944;-67
2022/07/12 11:48:43;;;;;;;0.77;0.60;;;18.10;54.40;20.30;94602.00;;;;10438036;28;45205;-67
2022/07/12 11:54:09;;;;;;;1.15;0.60;;;18.20;54.40;20.30;94606.00;;;;10437667;28;45471;-66
2022/07/12 11:59:39;;;;;;;0.88;0.55;;;18.20;54.40;20.30;94601.00;;;;10438204;28;45342;-67
2022/07/12 12:05:15;;;;;;;1.20;0.70;;;18.20;54.40;20.30;94601.00;;;;10437603;28;45263;-67
2022/07/12 12:10:39;;;;;;;1.25;0.68;;;18.20;54.40;20.40;94608.00;;;;10436589;28;45226;-66
2022/07/12 12:16:03;;;;;;;1.25;0.65;;;18.20;54.50;20.40;94604.00;;;;10451846;22;45135;-63
2022/07/12 12:21:27;;;;;;;1.13;0.60;;;18.20;54.40;20.40;94612.00;;;;10437213;28;45711;-62
2022/07/12 12:26:48;;;;;;;1.58;0.65;;;18.20;54.30;20.40;94594.00;;;;10437061;28;45103;-62
2022/07/12 12:32:18;;;;;;;0.80;0.60;;;18.30;54.40;20.40;94590.00;;;;10436195;28;45783;-62
2022/07/12 12:37:40;;;;;;;1.20;0.70;;;18.30;54.50;20.40;94604.00;;;;10436375;28;45108;-63
2022/07/12 12:43:08;;;;;;;1.75;0.60;;;18.30;54.50;20.50;94590.00;;;;10436060;28;45799;-62
2022/07/12 12:48:32;;;;;;;1.90;0.40;;;18.30;54.40;20.50;94580.00;;;;10435863;28;45125;-62
2022/07/12 12:53:57;;;;;;;2.22;0.80;;;18.30;54.50;20.50;94604.00;;;;10436133;28;45761;-62
2022/07/12 12:59:18;;;;;;;1.38;0.60;;;18.40;54.40;20.50;94594.00;;;;10435655;28;45181;-63
2022/07/12 13:04:40;;;;;;;2.10;0.70;;;18.40;54.60;20.50;94578.00;;;;10430963;28;46377;-62
2022/07/12 13:10:01;;;;;;;1.35;0.63;;;18.30;54.50;20.50;94588.00;;;;10430060;28;45228;-63
2022/07/12 13:15:21;;;;;;;1.23;0.52;;;18.30;54.50;20.50;94592.00;;;;10433700;28;45777;-63
2022/07/12 13:20:43;;;;;;;1.63;0.60;;;18.40;54.50;20.50;94589.00;;;;10433760;28;45220;-63
2022/07/12 13:26:04;;;;;;;1.40;0.60;;;18.40;54.50;20.50;94577.00;;;;10433149;28;45146;-63
2022/07/12 13:31:26;;;;;;;1.38;0.70;;;18.40;54.50;20.60;94570.00;;;;10433506;28;45146;-63
2022/07/12 13:36:47;;;;;;;1.45;0.65;;;18.40;54.50;20.60;94578.00;;;;10433024;28;45854;-62
2022/07/12 13:42:08;;;;;;;1.60;0.68;;;18.40;54.50;20.60;94576.00;;;;10426725;28;45260;-62
2022/07/12 13:47:29;;;;;;;0.60;0.50;;;18.40;54.40;20.60;94580.00;;;;10432756;28;45492;-62
2022/07/12 13:52:50;;;;;;;1.10;0.60;;;18.50;54.50;20.60;94580.00;;;;10434361;28;45117;-62
2022/07/12 13:58:12;;;;;;;1.23;0.50;;;18.50;54.40;20.60;94566.00;;;;10437131;28;45208;-62
2022/07/12 14:03:32;;;;;;;1.33;0.63;;;18.50;54.30;20.60;94574.00;;;;10441281;28;45731;-64
2022/07/12 14:08:54;;;;;;;0.70;0.52;;;18.50;54.40;20.70;94584.00;;;;10440981;28;45774;-63
2022/07/12 14:14:14;;;;;;;0.82;0.55;;;18.50;54.30;20.70;94575.00;;;;10441214;28;45242;-63
2022/07/12 14:19:35;;;;;;;1.67;0.55;;;18.50;54.30;20.70;94562.00;;;;10419136;28;45664;-62
2022/07/12 14:24:57;;;;;;;0.95;0.70;;;18.60;54.30;20.70;94578.00;;;;10399621;28;45183;-62
2022/07/12 14:30:17;;;;;;;1.40;0.60;;;18.50;54.20;20.70;94565.00;;;;10398740;28;45886;-62
2022/07/12 14:35:38;;;;;;;1.25;0.60;;;18.60;54.30;20.70;94566.00;;;;10398626;28;45124;-63
2022/07/12 14:41:00;;;;;;;0.52;0.50;;;18.60;54.30;20.70;94549.00;;;;10398645;28;45684;-63
2022/07/12 14:46:21;;;;;;;0.90;0.50;;;18.60;54.20;20.70;94564.00;;;;10398291;28;45187;-63
2022/07/12 14:51:41;;;;;;;1.17;0.50;;;18.60;54.20;20.70;94562.00;;;;10398469;28;45335;-62
2022/07/12 14:57:03;;;;;;;1.60;0.60;;;18.60;54.10;20.80;94552.00;;;;10398697;28;45434;-62
2022/07/12 15:02:24;;;;;;;0.68;0.50;;;18.70;54.10;20.80;94569.00;;;;10397882;28;45266;-64
2022/07/12 15:07:44;;;;;;;1.55;0.50;;;18.60;54.10;20.80;94571.00;;;;10391350;28;45867;-63
2022/07/12 15:13:06;;;;;;;1.15;0.50;;;18.60;54.00;20.70;94561.00;;;;10396498;28;45189;-62
2022/07/12 15:18:27;;;;;;;2.70;0.85;;;18.60;54.00;20.80;94563.00;;;;10397433;28;45900;-62
2022/07/12 15:23:47;;;;;;;4.90;0.90;;;18.60;54.00;20.80;94558.00;;;;10397050;28;45206;-62
2022/07/12 15:29:09;;;;;;;3.13;0.85;;;18.70;54.00;20.80;94562.00;;;;10403756;28;45184;-62
2022/07/12 15:34:30;;;;;;;2.65;0.85;;;18.70;53.90;20.80;94539.00;;;;10439348;28;45140;-62
2022/07/12 15:39:51;;;;;;;1.33;0.70;;;18.70;53.90;20.80;94540.00;;;;10437900;28;45105;-62
2022/07/12 15:45:13;;;;;;;2.45;0.95;;;18.70;53.80;20.90;94547.00;;;;10438078;28;45112;-63
2022/07/12 15:50:33;;;;;;;1.95;0.70;;;18.70;53.80;20.90;94549.00;;;;10438002;28;45201;-63
2022/07/12 15:55:56;;;;;;;1.35;0.75;;;18.80;53.80;20.90;94555.00;;;;10437519;28;45144;-62
2022/07/12 16:01:18;;;;;;;3.38;0.70;;;18.80;53.70;21.00;94554.00;;;;10438449;28;45677;-63
2022/07/12 16:06:39;;;;;;;1.80;0.80;;;18.80;54.00;21.00;94554.00;;;;10437925;28;45657;-62
2022/07/12 16:11:59;;;;;;;1.98;0.60;;;18.90;53.90;21.00;94560.00;;;;10434697;28;45099;-63
2022/07/12 16:17:22;;;;;;;1.85;0.70;;;18.90;54.10;21.00;94568.00;;;;10431337;28;45152;-62
2022/07/12 16:22:42;;;;;;;2.38;0.75;;;18.90;54.10;21.00;94557.00;;;;10436823;28;45373;-63
2022/07/12 16:28:03;;;;;;;0.60;0.43;;;18.90;54.00;21.00;94545.00;;;;10435448;28;45202;-63
2022/07/12 16:33:25;;;;;;;1.40;0.60;;;18.90;53.90;21.00;94557.00;;;;10433001;28;45305;-62
2022/07/12 16:38:46;;;;;;;0.60;0.60;;;18.90;53.80;21.00;94566.00;;;;10433219;28;45475;-62
2022/07/12 16:44:07;;;;;;;1.30;0.57;;;18.90;53.80;21.00;94571.00;;;;10437221;28;45200;-62
2022/07/12 16:49:28;;;;;;;2.50;0.80;;;18.90;53.80;21.10;94558.00;;;;10436857;28;45791;-62
2022/07/12 16:54:49;;;;;;;3.22;0.70;;;19.00;53.70;21.10;94567.00;;;;10436976;28;45688;-62
2022/07/12 17:00:14;;;;;;;1.67;0.52;;;19.00;53.70;21.10;94575.00;;;;10436533;28;45179;-62
2022/07/12 17:05:35;;;;;;;1.08;0.50;;;19.00;53.70;21.10;94566.00;;;;10430008;28;45186;-64
2022/07/12 17:10:56;;;;;;;3.10;0.70;;;19.00;53.60;21.10;94574.00;;;;10434676;28;45245;-63
2022/07/12 17:16:16;;;;;;;2.10;0.68;;;19.00;53.60;21.10;94560.00;;;;10435036;28;45095;-63
2022/07/12 17:21:39;;;;;;;1.65;0.60;;;19.00;53.60;21.10;94573.00;;;;10436454;28;45173;-62
2022/07/12 17:27:00;;;;;;;1.65;0.68;;;19.00;53.50;21.20;94576.00;;;;10435733;28;45188;-63
2022/07/12 17:32:20;;;;;;;1.38;0.63;;;19.00;53.50;21.10;94570.00;;;;10437479;28;45184;-63
2022/07/12 17:37:42;;;;;;;0.90;0.50;;;19.00;53.80;21.10;94571.00;;;;10442191;28;45888;-63
2022/07/12 17:43:03;;;;;;;0.68;0.40;;;19.00;53.80;21.10;94579.00;;;;10442679;28;45669;-62
2022/07/12 17:48:23;;;;;;;0.70;0.50;;;19.00;53.80;21.20;94578.00;;;;10442207;28;45765;-62
2022/07/12 17:53:45;;;;;;;0.80;0.50;;;19.00;53.70;21.10;94587.00;;;;10442762;28;45243;-63
2022/07/12 17:59:06;;;;;;;2.25;0.47;;;19.00;54.10;21.10;94593.00;;;;10442049;28;45850;-63
2022/07/12 18:04:26;;;;;;;1.17;0.52;;;19.00;54.10;21.10;94598.00;;;;10442512;28;45874;-63
2022/07/12 18:09:48;;;;;;;0.73;0.60;;;19.00;54.10;21.20;94603.00;;;;10441555;28;45173;-63
2022/07/12 18:15:09;;;;;;;1.40;0.47;;;19.00;53.90;21.10;94594.00;;;;10441717;28;45095;-63
2022/07/12 18:20:30;;;;;;;1.05;0.70;;;19.00;54.20;21.10;94603.00;;;;10441161;28;45058;-63
2022/07/12 18:25:52;;;;;;;1.00;0.50;;;19.00;54.10;21.10;94601.00;;;;10440505;28;45165;-63
2022/07/12 18:31:12;;;;;;;0.60;0.60;;;19.00;53.90;21.10;94604.00;;;;10440999;28;45016;-63
2022/07/12 18:36:33;;;;;;;0.85;0.47;;;19.00;54.10;21.10;94595.00;;;;10440314;28;45189;-62
2022/07/12 18:41:55;;;;;;;0.82;0.50;;;19.00;53.90;21.10;94607.00;;;;10440407;28;45259;-63
2022/07/12 18:47:16;;;;;;;1.25;0.70;;;18.90;54.00;21.10;94617.00;;;;10439937;28;45162;-63
2022/07/12 18:52:37;;;;;;;0.80;0.50;;;18.90;54.00;21.00;94605.00;;;;10440390;28;45167;-64
2022/07/12 18:57:59;;;;;;;2.03;0.47;;;18.90;54.10;21.00;94612.00;;;;10439491;28;45180;-64
2022/07/12 19:03:22;;;;;;;0.93;0.50;;;18.90;54.20;21.00;94616.00;;;;10439611;28;45145;-64
2022/07/12 19:08:42;;;;;;;1.00;0.60;;;18.80;54.10;21.00;94616.00;;;;10438900;28;45191;-64
2022/07/12 19:14:04;;;;;;;1.08;0.57;;;18.80;54.10;21.00;94614.00;;;;10439397;28;45417;-64
2022/07/12 19:19:25;;;;;;;0.90;0.60;;;18.80;54.20;20.90;94606.00;;;;10438469;28;45161;-64
2022/07/12 19:24:45;;;;;;;1.10;0.73;;;18.80;54.20;20.90;94620.00;;;;10438834;28;45304;-64
2022/07/12 19:30:09;;;;;;;0.88;0.40;;;18.80;54.30;20.90;94617.00;;;;10438319;28;45215;-64
2022/07/12 19:35:29;;;;;;;1.30;0.60;;;18.80;54.30;20.90;94636.00;;;;10437682;28;45128;-63
2022/07/12 19:40:50;;;;;;;0.50;0.47;;;18.70;54.30;20.90;94646.00;;;;10438617;28;45187;-64
2022/07/12 19:46:12;;;;;;;0.52;0.40;;;18.70;54.50;20.80;94646.00;;;;10437775;28;45787;-64
2022/07/12 19:51:32;;;;;;;0.65;0.50;;;18.70;54.60;20.80;94637.00;;;;10438066;28;45449;-63
2022/07/12 19:56:53;;;;;;;0.85;0.70;;;18.70;54.70;20.80;94657.00;;;;10431380;28;45549;-63
2022/07/12 20:02:15;;;;;;;1.20;0.60;;;18.70;54.60;20.80;94656.00;;;;10437040;28;45270;-63
2022/07/12 20:07:36;;;;;;;0.40;0.40;;;18.60;54.70;20.80;94665.00;;;;10437016;28;45203;-62
2022/07/12 20:12:57;;;;;;;0.90;0.40;;;18.60;54.70;20.80;94661.00;;;;10437884;28;45808;-64
2022/07/12 20:18:19;;;;;;;1.33;0.65;;;18.60;54.70;20.80;94670.00;;;;10438152;28;45232;-62
2022/07/12 20:23:39;;;;;;;0.85;0.60;;;18.60;54.80;20.80;94673.00;;;;10438385;28;45854;-62
2022/07/12 20:29:00;;;;;;;0.68;0.47;;;18.60;54.80;20.80;94677.00;;;;10437925;28;45192;-63
2022/07/12 20:34:29;;;;;;;1.20;0.50;;;18.60;54.80;20.80;94665.00;;;;10437757;28;46102;-63
2022/07/12 20:39:49;;;;;;;0.90;0.50;;;18.60;54.80;20.70;94676.00;;;;10437120;28;45196;-62
2022/07/12 20:45:11;;;;;;;1.52;0.50;;;18.60;54.80;20.70;94670.00;;;;10437113;28;45128;-63
2022/07/12 20:50:32;;;;;;;0.80;0.50;;;18.60;54.80;20.70;94664.00;;;;10437341;28;45812;-64
2022/07/12 20:55:54;;;;;;;0.40;0.40;;;18.60;54.80;20.70;94668.00;;;;10437098;28;45398;-63
2022/07/12 21:01:14;;;;;;;1.05;0.50;;;18.60;54.80;20.70;94674.00;;;;10436963;28;45163;-63
2022/07/12 21:06:36;;;;;;;0.95;0.60;;;18.60;54.80;20.70;94669.00;;;;10436773;28;45216;-62
2022/07/12 21:11:56;;;;;;;0.68;0.45;;;18.60;54.80;20.70;94655.00;;;;10436380;28;45242;-63
2022/07/12 21:17:17;;;;;;;0.95;0.60;;;18.60;54.80;20.70;94663.00;;;;10436202;28;45171;-63
2022/07/12 21:22:39;;;;;;;0.70;0.52;;;18.50;54.80;20.70;94668.00;;;;10436496;28;45244;-62
2022/07/12 21:28:00;;;;;;;1.30;0.70;;;18.50;54.90;20.70;94652.00;;;;10436221;28;45126;-63
2022/07/12 21:33:21;;;;;;;0.88;0.60;;;18.50;54.90;20.70;94662.00;;;;10435808;28;45864;-62
2022/07/12 21:38:43;;;;;;;0.88;0.50;;;18.50;54.80;20.70;94649.00;;;;10435436;28;45747;-63
2022/07/12 21:44:04;;;;;;;0.60;0.60;;;18.50;54.80;20.70;94662.00;;;;10435112;28;45165;-63
2022/07/12 21:49:24;;;;;;;0.68;0.50;;;18.50;54.90;20.70;94635.00;;;;10434805;28;45171;-63
2022/07/12 21:54:46;;;;;;;0.63;0.50;;;18.50;54.90;20.70;94655.00;;;;10435457;28;45182;-63
2022/07/12 22:00:09;;;;;;;0.52;0.43;;;18.50;54.90;20.70;94651.00;;;;10435482;28;45511;-63
2022/07/12 22:05:29;;;;;;;0.60;0.50;;;18.50;54.80;20.60;94659.00;;;;10435226;28;45968;-62
2022/07/12 22:10:51;;;;;;;3.50;0.68;;;18.50;54.80;20.60;94658.00;;;;10435313;28;45856;-63
2022/07/12 22:16:12;;;;;;;0.60;0.60;;;18.50;54.80;20.60;94642.00;;;;10434741;28;45306;-63
2022/07/12 22:21:32;;;;;;;0.60;0.50;;;18.50;54.80;20.60;94644.00;;;;10441142;28;45125;-63
2022/07/12 22:26:54;;;;;;;0.55;0.50;;;18.50;54.80;20.60;94637.00;;;;10442110;28;45755;-63
2022/07/12 22:32:14;;;;;;;0.60;0.60;;;18.50;54.80;20.60;94650.00;;;;10441820;28;45211;-62
2022/07/12 22:37:35;;;;;;;0.50;0.50;;;18.50;54.80;20.60;94645.00;;;;10441540;28;45760;-62
2022/07/12 22:42:57;;;;;;;1.10;0.50;;;18.50;54.90;20.60;94641.00;;;;10441612;28;45181;-63
2022/07/12 22:48:17;;;;;;;0.55;0.55;;;18.40;54.80;20.60;94629.00;;;;10441108;28;45223;-63
2022/07/12 22:53:38;;;;;;;0.43;0.40;;;18.40;54.80;20.60;94637.00;;;;10441259;28;45200;-62
2022/07/12 22:58:59;;;;;;;0.45;0.35;;;18.40;54.80;20.60;94641.00;;;;10441070;28;45220;-63
2022/07/12 23:04:20;;;;;;;0.60;0.50;;;18.40;54.80;20.60;94630.00;;;;10440798;28;45696;-63
2022/07/12 23:09:41;;;;;;;0.50;0.50;;;18.40;54.80;20.60;94640.00;;;;10440059;28;45142;-63
2022/07/12 23:15:03;;;;;;;0.70;0.50;;;18.40;54.80;20.60;94628.00;;;;10440075;28;45192;-63
2022/07/12 23:20:23;;;;;;;0.60;0.60;;;18.40;54.80;20.60;94641.00;;;;10440195;28;45212;-63
2022/07/12 23:25:44;;;;;;;1.13;0.50;;;18.40;54.80;20.60;94626.00;;;;10439816;28;45124;-63
2022/07/12 23:31:06;;;;;;;0.70;0.50;;;18.40;54.80;20.60;94642.00;;;;10439139;28;45188;-63
2022/07/12 23:36:27;;;;;;;0.43;0.43;;;18.40;54.70;20.60;94642.00;;;;10439740;28;45195;-63
2022/07/12 23:41:47;;;;;;;0.40;0.30;;;18.40;54.70;20.60;94639.00;;;;10439678;28;45178;-62
2022/07/12 23:47:09;;;;;;;0.50;0.50;;;18.40;54.80;20.60;94621.00;;;;10439436;28;45251;-63
2022/07/12 23:52:29;;;;;;;0.60;0.50;;;18.40;54.70;20.60;94637.00;;;;10439179;28;45188;-63